createdAt,value
2018-08-25T00:04:51.175Z,16.50
2018-08-25T00:09:45.660Z,16.40
2018-08-25T00:14:40.554Z,16.40
2018-08-25T00:19:35.039Z,16.40
2018-08-25T00:24:29.729Z,16.40
2018-08-25T00:29:24.350Z,16.40
2018-08-25T00:34:18.832Z,16.40
2018-08-25T00:39:13.373Z,16.40
2018-08-25T00:44:07.960Z,16.40
2018-08-25T00:49:02.480Z,16.40
2018-08-25T00:53:57.000Z,16.40
2018-08-25T00:58:51.524Z,16.40
2018-08-25T01:03:46.044Z,16.40
2018-08-25T01:08:40.578Z,16.50
2018-08-25T01:13:35.058Z,16.50
2018-08-25T01:18:29.695Z,16.50
2018-08-25T01:23:24.301Z,16.50
2018-08-25T01:28:18.999Z,16.50
2018-08-25T01:33:13.488Z,16.50
2018-08-25T01:38:07.953Z,16.50
2018-08-25T01:43:02.515Z,16.50
2018-08-25T01:47:57.232Z,16.40
2018-08-25T01:52:51.692Z,16.40
2018-08-25T01:57:46.192Z,16.50
2018-08-25T02:02:40.742Z,16.40
2018-08-25T02:07:35.656Z,16.40
2018-08-25T02:12:30.406Z,16.40
2018-08-25T02:17:24.924Z,16.50
2018-08-25T02:22:19.395Z,16.50
2018-08-25T02:27:13.888Z,16.50
2018-08-25T02:32:08.374Z,16.40
2018-08-25T02:37:02.880Z,16.40
2018-08-25T02:41:57.648Z,16.40
2018-08-25T02:46:52.089Z,16.40
2018-08-25T02:51:46.554Z,16.30
2018-08-25T02:56:41.144Z,16.30
2018-08-25T03:01:35.776Z,16.20
2018-08-25T03:06:30.276Z,16.20
2018-08-25T03:11:24.958Z,16.00
2018-08-25T03:16:19.726Z,15.90
2018-08-25T03:21:14.516Z,15.80
2018-08-25T03:26:09.038Z,15.70
2018-08-25T03:31:03.563Z,15.60
2018-08-25T03:35:58.350Z,15.50
2018-08-25T03:40:53.028Z,15.50
2018-08-25T03:45:47.502Z,15.40
2018-08-25T03:50:41.984Z,15.30
2018-08-25T03:55:36.479Z,15.20
2018-08-25T04:00:31.146Z,15.20
2018-08-25T04:05:25.651Z,15.20
2018-08-25T04:10:20.512Z,15.10
2018-08-25T04:15:14.998Z,15.00
2018-08-25T04:20:09.494Z,14.90
2018-08-25T04:25:04.157Z,14.80
2018-08-25T04:29:58.648Z,14.70
2018-08-25T04:34:53.194Z,14.70
2018-08-25T04:39:47.608Z,14.50
2018-08-25T04:44:42.078Z,14.30
2018-08-25T04:49:36.559Z,14.10
2018-08-25T04:54:31.065Z,14.00
2018-08-25T04:59:25.531Z,13.90
2018-08-25T05:04:20.040Z,13.90
2018-08-25T05:09:14.532Z,13.80
2018-08-25T05:14:09.024Z,13.70
2018-08-25T05:19:03.540Z,13.60
2018-08-25T05:23:58.030Z,13.60
2018-08-25T05:28:52.547Z,13.70
2018-08-25T05:33:47.097Z,13.70
2018-08-25T05:38:41.644Z,13.80
2018-08-25T05:43:36.161Z,13.80
2018-08-25T05:48:30.952Z,14.00
2018-08-25T05:53:25.785Z,14.10
2018-08-25T05:58:20.284Z,14.10
2018-08-25T06:03:14.768Z,14.10
2018-08-25T06:08:09.486Z,14.20
2018-08-25T06:13:04.297Z,14.20
2018-08-25T06:17:58.853Z,14.30
2018-08-25T06:22:53.342Z,14.50
2018-08-25T06:27:47.835Z,14.80
2018-08-25T06:32:42.371Z,15.30
2018-08-25T06:37:36.871Z,16.60
2018-08-25T06:42:31.519Z,16.60
2018-08-25T06:47:26.412Z,16.70
2018-08-25T06:52:20.923Z,16.70
2018-08-25T06:57:15.570Z,16.90
2018-08-25T07:02:10.209Z,18.30
2018-08-25T07:07:04.816Z,20.90
2018-08-25T07:11:59.834Z,25.00
2018-08-25T07:16:54.291Z,27.00
2018-08-25T07:21:48.955Z,26.40
2018-08-25T07:26:43.449Z,28.40
2018-08-25T07:31:38.150Z,27.80
2018-08-25T07:36:32.657Z,25.50
2018-08-25T07:41:28.397Z,25.10
2018-08-25T07:46:22.910Z,24.60
2018-08-25T07:51:17.430Z,23.20
2018-08-25T07:56:12.010Z,22.80
2018-08-25T08:01:06.866Z,28.10
2018-08-25T08:06:01.536Z,30.30
2018-08-25T08:10:56.042Z,28.10
2018-08-25T08:15:50.650Z,26.00
2018-08-25T08:20:45.336Z,24.00
2018-08-25T08:25:39.953Z,23.40
2018-08-25T08:30:34.554Z,24.90
2018-08-25T08:35:29.168Z,26.10
2018-08-25T08:40:23.769Z,29.20
2018-08-25T08:45:18.553Z,34.50
2018-08-25T08:50:13.813Z,36.20
2018-08-25T08:55:09.140Z,38.70
2018-08-25T09:00:04.074Z,37.70
2018-08-25T09:04:59.133Z,36.70
2018-08-25T09:09:53.898Z,39.80
2018-08-25T09:14:48.914Z,42.20
2018-08-25T09:19:43.806Z,44.20
2018-08-25T09:24:38.572Z,39.70
2018-08-25T09:29:33.536Z,37.90
2018-08-25T09:34:28.321Z,38.10
2018-08-25T09:39:23.081Z,34.80
2018-08-25T09:44:18.152Z,34.80
2018-08-25T09:49:13.182Z,35.60
2018-08-25T09:54:08.186Z,35.70
2018-08-25T09:59:03.435Z,33.20
2018-08-25T10:03:58.605Z,30.50
2018-08-25T10:08:53.553Z,28.70
2018-08-25T10:13:48.304Z,27.10
2018-08-25T10:18:42.892Z,25.60
2018-08-25T10:23:37.710Z,24.90
2018-08-25T10:28:32.339Z,24.70
2018-08-25T10:33:26.949Z,24.10
2018-08-25T10:38:22.301Z,23.70
2018-08-25T10:43:16.842Z,23.50
2018-08-25T10:48:11.666Z,22.80
2018-08-25T10:53:06.644Z,22.80
2018-08-25T10:58:01.412Z,22.90
2018-08-25T11:02:55.878Z,22.70
2018-08-25T11:07:50.534Z,22.80
2018-08-25T11:12:44.992Z,23.00
2018-08-25T11:17:39.449Z,23.10
2018-08-25T11:22:34.374Z,23.00
2018-08-25T11:27:29.391Z,22.20
2018-08-25T11:32:23.936Z,21.50
2018-08-25T11:37:18.581Z,21.30
2018-08-25T11:42:13.428Z,20.90
2018-08-25T11:47:14.264Z,20.60
2018-08-25T11:52:09.178Z,20.80
2018-08-25T11:57:03.847Z,21.50
2018-08-25T12:01:58.374Z,22.30
2018-08-25T12:06:52.920Z,22.80
2018-08-25T12:11:47.732Z,22.90
2018-08-25T12:16:42.388Z,23.00
2018-08-25T12:21:36.887Z,23.20
2018-08-25T12:26:31.434Z,23.40
2018-08-25T12:31:26.130Z,23.60
2018-08-25T12:36:20.777Z,23.90
2018-08-25T12:41:15.281Z,23.30
2018-08-25T12:46:09.725Z,22.30
2018-08-25T12:51:04.205Z,21.00
2018-08-25T12:55:58.695Z,19.90
2018-08-25T13:00:53.718Z,19.10
2018-08-25T13:05:48.226Z,18.60
2018-08-25T13:10:42.805Z,18.50
2018-08-25T13:15:37.461Z,18.80
2018-08-25T13:20:32.130Z,19.10
2018-08-25T13:25:26.759Z,19.30
2018-08-25T13:30:21.262Z,19.40
2018-08-25T13:35:15.800Z,19.70
2018-08-25T13:40:11.000Z,20.20
2018-08-25T13:45:05.449Z,20.60
2018-08-25T13:50:00.098Z,20.70
2018-08-25T13:54:55.311Z,20.90
2018-08-25T13:59:50.172Z,21.10
2018-08-25T14:04:44.963Z,20.70
2018-08-25T14:09:39.445Z,20.10
2018-08-25T14:14:34.055Z,19.50
2018-08-25T14:19:28.502Z,19.40
2018-08-25T14:24:22.976Z,19.40
2018-08-25T14:29:17.892Z,19.10
2018-08-25T14:34:12.998Z,19.00
2018-08-25T14:39:09.985Z,19.50
2018-08-25T14:44:05.183Z,20.00
2018-08-25T14:48:59.854Z,19.90
2018-08-25T14:53:54.588Z,19.50
2018-08-25T14:58:49.313Z,19.00
2018-08-25T15:03:43.850Z,18.40
2018-08-25T15:08:38.413Z,18.00
2018-08-25T15:13:34.945Z,17.70
2018-08-25T15:18:29.812Z,17.50
2018-08-25T15:23:24.423Z,17.40
2018-08-25T15:28:18.957Z,17.40
2018-08-25T15:33:13.630Z,17.60
2018-08-25T15:38:08.154Z,18.10
2018-08-25T15:43:02.865Z,18.70
2018-08-25T15:47:57.612Z,19.20
2018-08-25T15:52:52.501Z,19.30
2018-08-25T15:57:47.228Z,19.40
2018-08-25T16:02:41.927Z,19.20
2018-08-25T16:07:36.920Z,19.00
2018-08-25T16:12:31.691Z,18.70
2018-08-25T16:17:26.525Z,18.40
2018-08-25T16:22:21.048Z,18.20
2018-08-25T16:27:15.677Z,17.90
2018-08-25T16:32:10.200Z,17.70
2018-08-25T16:37:04.866Z,17.50
2018-08-25T16:41:59.343Z,17.30
2018-08-25T16:46:54.271Z,17.10
2018-08-25T16:51:48.696Z,17.10
2018-08-25T16:56:43.173Z,17.10
2018-08-25T17:01:37.763Z,17.30
2018-08-25T17:06:32.790Z,17.50
2018-08-25T17:11:27.328Z,17.60
2018-08-25T17:16:22.175Z,17.60
2018-08-25T17:21:16.740Z,17.60
2018-08-25T17:26:11.530Z,17.30
2018-08-25T17:31:06.198Z,17.00
2018-08-25T17:36:01.484Z,16.70
2018-08-25T17:40:56.165Z,16.40
2018-08-25T17:45:50.602Z,16.10
2018-08-25T17:50:45.090Z,15.90
2018-08-25T17:55:39.528Z,15.80
2018-08-25T18:00:34.048Z,15.70
2018-08-25T18:05:28.722Z,15.70
2018-08-25T18:10:23.237Z,15.60
2018-08-25T18:15:17.771Z,15.60
2018-08-25T18:20:12.496Z,15.60
2018-08-25T18:25:06.955Z,15.40
2018-08-25T18:30:01.977Z,15.20
2018-08-25T18:34:56.976Z,15.00
2018-08-25T18:39:51.496Z,14.80
2018-08-25T18:44:46.509Z,14.60
2018-08-25T18:49:41.160Z,14.50
2018-08-25T18:54:35.793Z,14.30
2018-08-25T18:59:30.521Z,14.20
2018-08-25T19:04:25.080Z,14.10
2018-08-25T19:09:19.576Z,14.00
2018-08-25T19:14:14.101Z,13.90
2018-08-25T19:19:08.791Z,13.80
2018-08-25T19:24:03.607Z,13.60
2018-08-25T19:28:58.237Z,13.50
2018-08-25T19:33:53.178Z,13.30
2018-08-25T19:38:47.646Z,13.20
2018-08-25T19:43:42.146Z,13.10
2018-08-25T19:48:37.178Z,13.00
2018-08-25T19:53:31.659Z,12.90
2018-08-25T19:58:26.132Z,12.90
2018-08-25T20:03:20.632Z,12.80
2018-08-25T20:08:15.305Z,12.70
2018-08-25T20:13:10.285Z,12.60
2018-08-25T20:18:04.786Z,12.50
2018-08-25T20:22:59.462Z,12.40
2018-08-25T20:27:54.088Z,12.40
2018-08-25T20:32:48.832Z,12.30
2018-08-25T20:37:43.390Z,12.30
2018-08-25T20:42:37.920Z,12.20
2018-08-25T20:47:32.957Z,12.20
2018-08-25T20:52:27.509Z,12.10
2018-08-25T20:57:22.065Z,12.10
2018-08-25T21:02:16.645Z,12.10
2018-08-25T21:07:11.331Z,12.00
2018-08-25T21:12:05.783Z,11.90
2018-08-25T21:17:00.324Z,11.90
2018-08-25T21:21:54.931Z,11.80
2018-08-25T21:26:49.736Z,11.80
2018-08-25T21:31:44.228Z,11.70
2018-08-25T21:36:38.965Z,11.70
2018-08-25T21:41:33.776Z,11.70
2018-08-25T21:46:28.660Z,11.60
2018-08-25T21:51:23.140Z,11.60
2018-08-25T21:56:17.605Z,11.60
2018-08-25T22:01:12.263Z,11.50
2018-08-25T22:06:07.204Z,11.40
2018-08-25T22:11:01.862Z,11.40
2018-08-25T22:15:56.328Z,11.30
2018-08-25T22:20:50.877Z,11.30
2018-08-25T22:25:45.628Z,11.20
2018-08-25T22:30:40.148Z,11.20
2018-08-25T22:35:34.593Z,11.20
2018-08-25T22:40:29.110Z,11.20
2018-08-25T22:45:23.610Z,11.10
2018-08-25T22:50:18.112Z,11.10
2018-08-25T22:55:12.581Z,11.10
2018-08-25T23:00:07.087Z,11.10
2018-08-25T23:05:03.932Z,11.20
2018-08-25T23:09:58.387Z,11.20
2018-08-25T23:14:52.861Z,11.20
2018-08-25T23:19:47.280Z,11.30
2018-08-25T23:24:42.006Z,11.20
2018-08-25T23:29:36.476Z,11.20
2018-08-25T23:34:31.080Z,11.10
2018-08-25T23:39:25.552Z,11.10
2018-08-25T23:44:20.067Z,11.00
2018-08-25T23:49:14.802Z,11.00
2018-08-25T23:54:09.339Z,10.90
2018-08-25T23:59:04.076Z,10.90
